Time;durP1;ratioP1;P1;durP2;ratioP2;P2;SDS_P1;SDS_P2;PMS_P1;PMS_P2;Temp;Humidity;BMP_temperature;BMP_pressure;BME280_temperature;BME280_humidity;BME280_pressure;Samples;Min_cycle;Max_cycle;Signal;HPM_P1;HPM_P2
2022/03/30 00:01:35;;;;;;;38.47;17.90;;;;;;;9.95;48.28;99268.25;1444619;89;23546;-84
2022/03/30 00:04:01;;;;;;;25.80;16.23;;;;;;;9.92;48.39;99273.38;1434424;90;22492;-84
2022/03/30 00:06:27;;;;;;;35.77;18.97;;;;;;;9.85;49.12;99272.43;1444119;89;21413;-84
2022/03/30 00:08:53;;;;;;;32.53;19.10;;;;;;;9.74;49.85;99274.12;1433330;89;21435;-85
2022/03/30 00:11:20;;;;;;;38.87;18.50;;;;;;;9.66;49.42;99274.14;1452404;89;21413;-84
2022/03/30 00:13:46;;;;;;;43.70;23.03;;;;;;;9.60;49.23;99268.22;1442583;89;21413;-85
2022/03/30 00:16:12;;;;;;;37.10;20.37;;;;;;;9.54;49.46;99268.90;1442987;88;21561;-85
2022/03/30 00:18:40;;;;;;;39.20;21.03;;;;;;;9.48;49.79;99268.58;1439187;89;22418;-85
2022/03/30 00:21:09;;;;;;;35.27;19.17;;;;;;;9.43;50.27;99262.14;1436062;89;22647;-85
2022/03/30 00:23:35;;;;;;;52.63;20.13;;;;;;;9.37;50.44;99268.11;1445344;89;21471;-85
2022/03/30 00:26:01;;;;;;;32.10;19.27;;;;;;;9.29;51.38;99263.66;1429113;89;21422;-85
2022/03/30 00:28:28;;;;;;;29.83;17.90;;;;;;;9.21;51.97;99264.51;1427152;90;21438;-85
2022/03/30 00:30:58;;;;;;;34.00;17.60;;;;;;;9.15;51.46;99259.05;1434882;90;21384;-85
2022/03/30 00:33:25;;;;;;;29.70;18.55;;;;;;;9.10;51.69;99253.47;1440022;90;21340;-84
2022/03/30 00:35:51;;;;;;;28.63;17.77;;;;;;;9.04;51.39;99255.78;1439191;89;21450;-85
2022/03/30 00:38:18;;;;;;;34.30;17.87;;;;;;;9.00;51.76;99253.13;1422177;91;22470;-84
2022/03/30 00:40:45;;;;;;;29.40;17.83;;;;;;;8.94;51.57;99253.80;1433957;90;21473;-85
2022/03/30 00:43:12;;;;;;;27.43;16.00;;;;;;;8.90;51.71;99252.48;1431000;91;21421;-84
2022/03/30 00:45:39;;;;;;;28.90;18.07;;;;;;;8.87;51.90;99245.41;1436987;90;21539;-84
2022/03/30 00:48:06;;;;;;;27.83;16.80;;;;;;;8.83;52.13;99242.25;1427175;90;22575;-85
2022/03/30 00:50:32;;;;;;;27.00;15.67;;;;;;;8.79;52.51;99239.13;1439538;90;22301;-85
2022/03/30 00:52:58;;;;;;;30.60;17.37;;;;;;;8.76;52.96;99233.36;1440567;90;21449;-83
2022/03/30 00:55:25;;;;;;;45.33;17.00;;;;;;;8.70;53.21;99230.89;1426764;90;21473;-82
2022/03/30 00:57:54;;;;;;;27.20;15.97;;;;;;;8.65;53.12;99229.73;1442712;90;21427;-84
2022/03/30 01:00:20;;;;;;;29.10;17.97;;;;;;;8.62;53.20;99230.87;1431558;89;21450;-85
2022/03/30 01:02:48;;;;;;;31.20;17.47;;;;;;;8.59;53.43;99225.44;1442282;89;21398;-83
2022/03/30 01:05:16;;;;;;;35.60;17.43;;;;;;;8.54;53.44;99219.00;1439861;90;21415;-85
2022/03/30 01:07:42;;;;;;;29.97;18.93;;;;;;;8.49;53.31;99222.64;1425212;90;22347;-84
2022/03/30 01:10:11;;;;;;;25.47;15.90;;;;;;;8.43;53.87;99218.84;1438087;90;21420;-83
2022/03/30 01:12:39;;;;;;;36.53;17.33;;;;;;;8.38;54.69;99223.75;1437459;89;23225;-84
2022/03/30 01:15:09;;;;;;;27.80;16.27;;;;;;;8.29;54.36;99221.59;1434869;89;21472;-82
2022/03/30 01:17:37;;;;;;;39.85;18.87;;;;;;;8.28;53.71;99219.11;1433844;90;21391;-83
2022/03/30 01:20:07;;;;;;;53.60;18.17;;;;;;;8.23;53.94;99210.85;1430242;90;21333;-83
2022/03/30 01:22:33;;;;;;;36.80;19.17;;;;;;;8.20;54.00;99209.86;1438678;91;21487;-83
2022/03/30 01:25:00;;;;;;;28.97;16.80;;;;;;;8.16;54.92;99200.64;1434634;89;21398;-83
2022/03/30 01:27:26;;;;;;;32.50;18.03;;;;;;;8.14;54.85;99203.42;1463186;88;21346;-83
2022/03/30 01:32:38;;;;;;;35.97;17.87;;;;;;;8.12;54.36;99204.92;1447601;89;21450;-84
2022/03/30 01:35:07;;;;;;;34.17;17.27;;;;;;;8.09;56.18;99196.02;1433747;90;21406;-83
2022/03/30 01:37:33;;;;;;;30.87;18.87;;;;;;;8.12;55.57;99200.97;1458371;89;21383;-84
2022/03/30 01:40:04;;;;;;;33.87;19.33;;;;;;;8.12;55.44;99198.33;1467921;89;21442;-84
2022/03/30 01:42:32;;;;;;;37.33;20.53;;;;;;;8.11;56.60;99198.01;1465054;88;21339;-83
2022/03/30 01:44:58;;;;;;;36.70;20.90;;;;;;;8.09;55.67;99201.79;1458228;89;21375;-84
2022/03/30 01:47:24;;;;;;;36.40;20.13;;;;;;;8.07;55.93;99199.80;1455950;88;21406;-84
2022/03/30 01:49:51;;;;;;;37.83;21.50;;;;;;;8.08;55.33;99201.44;1463515;88;21345;-84
2022/03/30 01:52:18;;;;;;;44.10;22.13;;;;;;;8.07;55.82;99192.71;1459352;88;22307;-84
2022/03/30 01:54:45;;;;;;;41.73;23.37;;;;;;;8.06;56.25;99192.39;1458638;88;21406;-84
2022/03/30 01:57:15;;;;;;;40.97;24.57;;;;;;;8.02;56.18;99194.19;1459999;88;21472;-85
2022/03/30 01:59:44;;;;;;;47.43;24.23;;;;;;;7.99;56.32;99194.00;1459186;89;22492;-84
2022/03/30 02:02:11;;;;;;;45.60;22.97;;;;;;;7.97;56.29;99192.05;1438906;89;22249;-84
2022/03/30 02:04:39;;;;;;;42.93;24.10;;;;;;;7.87;56.05;99188.22;1442828;90;21427;-84
2022/03/30 02:07:09;;;;;;;39.33;21.33;;;;;;;7.90;55.63;99189.70;1442581;90;21442;-83
2022/03/30 02:09:35;;;;;;;33.30;19.53;;;;;;;7.90;55.63;99189.70;1440170;89;21576;-83
2022/03/30 02:12:02;;;;;;;44.17;23.13;;;;;;;7.92;55.49;99199.60;1448425;89;21323;-82
2022/03/30 02:14:28;;;;;;;47.17;24.03;;;;;;;7.96;56.03;99198.78;1464689;88;21361;-83
2022/03/30 02:16:54;;;;;;;36.67;20.23;;;;;;;7.99;56.79;99192.69;1451582;88;22264;-83
2022/03/30 02:19:20;;;;;;;38.03;21.30;;;;;;;7.95;56.96;99196.64;1461364;88;21375;-83
2022/03/30 02:21:45;;;;;;;31.23;19.20;;;;;;;7.88;56.06;99177.18;1452012;88;21383;-83
2022/03/30 02:24:11;;;;;;;34.90;18.90;;;;;;;7.91;57.29;99213.73;1441192;89;21569;-83
2022/03/30 02:26:37;;;;;;;36.73;17.47;;;;;;;7.88;56.05;99218.86;1450795;89;21493;-83
2022/03/30 02:29:03;;;;;;;38.23;20.77;;;;;;;7.88;57.87;99218.86;1436434;89;21472;-83
2022/03/30 02:31:30;;;;;;;30.77;18.90;;;;;;;7.83;56.54;99212.42;1452716;89;21324;-83
2022/03/30 02:33:56;;;;;;;41.93;19.63;;;;;;;7.87;56.92;99236.13;1443423;89;21430;-84
2022/03/30 02:36:22;;;;;;;32.30;18.03;;;;;;;7.85;58.80;99196.80;1444090;89;21376;-83
2022/03/30 02:38:48;;;;;;;41.93;19.60;;;;;;;7.85;58.80;99196.80;1452820;89;21412;-84
2022/03/30 02:41:14;;;;;;;28.70;16.73;;;;;;;7.87;57.60;99205.84;1465512;88;21480;-84
2022/03/30 02:43:40;;;;;;;31.27;17.30;;;;;;;7.85;61.16;99194.63;1464347;88;21324;-84
2022/03/30 02:46:06;;;;;;;29.80;18.03;;;;;;;7.87;58.78;99219.01;1448081;88;21411;-84
2022/03/30 02:48:37;;;;;;;31.80;18.30;;;;;;;7.86;58.58;99233.17;1443165;89;21391;-84
2022/03/30 02:51:06;;;;;;;32.00;18.00;;;;;;;7.86;58.58;99233.17;1448176;89;21479;-84
2022/03/30 02:53:34;;;;;;;30.03;18.13;;;;;;;7.92;60.44;99232.53;1445422;89;21486;-85
2022/03/30 02:56:01;;;;;;;29.60;18.03;;;;;;;7.94;59.08;99223.98;1456865;89;22177;-83
2022/03/30 02:58:28;;;;;;;35.13;19.03;;;;;;;7.93;62.49;99205.19;1461884;88;21375;-84
2022/03/30 03:00:54;;;;;;;34.97;18.67;;;;;;;7.93;62.49;99205.19;1445175;89;21444;-84
2022/03/30 03:03:22;;;;;;;30.20;16.80;;;;;;;7.99;61.82;99211.13;1444319;89;21422;-85
2022/03/30 03:05:48;;;;;;;32.10;17.53;;;;;;;8.03;61.72;99213.80;1423179;89;21479;-87
2022/03/30 03:08:14;;;;;;;31.33;17.47;;;;;;;8.07;62.33;99209.84;1449346;89;21443;-86
2022/03/30 03:10:44;;;;;;;26.93;16.50;;;;;;;8.12;61.70;99216.78;1470571;88;21405;-86
2022/03/30 03:13:11;;;;;;;29.97;17.07;;;;;;;8.17;60.92;99216.31;1446773;88;21479;-86
2022/03/30 03:15:38;;;;;;;23.33;14.77;;;;;;;8.18;60.74;99225.03;1460472;89;21406;-85
2022/03/30 03:18:05;;;;;;;28.93;17.30;;;;;;;8.16;60.90;99230.95;1452295;89;22366;-85
2022/03/30 03:21:34;;;;;;;26.70;17.83;;;;;;;8.08;60.14;99233.06;1455173;88;21398;-86
2022/03/30 03:24:00;;;;;;;28.73;18.13;;;;;;;8.05;59.76;99226.30;1462560;88;21457;-85
2022/03/30 03:26:26;;;;;;;29.00;18.47;;;;;;;8.01;60.27;99226.30;1467154;89;21420;-84
2022/03/30 03:28:55;;;;;;;31.30;18.80;;;;;;;8.02;60.34;99217.72;1455581;89;22529;-84
2022/03/30 03:31:22;;;;;;;34.47;20.37;;;;;;;7.95;61.94;99233.53;1456180;89;21419;-84
2022/03/30 03:33:48;;;;;;;28.97;17.20;;;;;;;7.95;61.94;99233.53;1462885;89;21398;-85
2022/03/30 03:36:14;;;;;;;30.50;19.27;;;;;;;7.89;61.36;99235.48;1451459;88;21450;-84
2022/03/30 03:38:40;;;;;;;34.90;19.07;;;;;;;7.85;62.06;99232.82;1428638;89;23033;-85
2022/03/30 03:41:06;;;;;;;27.43;17.30;;;;;;;7.79;60.80;99230.33;1439083;89;21346;-85
2022/03/30 03:43:32;;;;;;;33.33;18.17;;;;;;;7.71;63.13;99240.86;1441232;90;22197;-84
2022/03/30 03:45:58;;;;;;;37.07;18.53;;;;;;;7.71;63.13;99240.86;1442598;89;21445;-84
2022/03/30 03:48:24;;;;;;;29.30;18.30;;;;;;;7.62;62.31;99230.78;1456768;89;21605;-85
2022/03/30 03:50:50;;;;;;;39.87;21.53;;;;;;;7.61;61.49;99225.16;1448419;89;22109;-83
2022/03/30 03:53:16;;;;;;;56.50;28.97;;;;;;;7.59;61.92;99221.85;1445094;89;23278;-83
2022/03/30 03:55:42;;;;;;;99.73;42.53;;;;;;;7.53;61.29;99221.17;1440457;89;21502;-84
2022/03/30 03:58:09;;;;;;;135.57;54.77;;;;;;;7.53;61.69;99211.95;1463875;88;22195;-83
2022/03/30 04:00:35;;;;;;;51.33;25.03;;;;;;;7.36;63.84;99236.55;1424707;90;21393;-84
2022/03/30 04:03:02;;;;;;;46.13;22.00;;;;;;;7.36;63.84;99236.55;1428138;89;21438;-83
2022/03/30 04:05:28;;;;;;;30.73;17.03;;;;;;;7.27;62.77;99246.20;1423348;91;22099;-84
2022/03/30 04:07:54;;;;;;;26.67;17.27;;;;;;;7.18;63.21;99250.59;1424015;90;22068;-84
2022/03/30 04:10:21;;;;;;;123.87;62.03;;;;;;;7.06;62.83;99254.45;1431001;89;22100;-84
2022/03/30 04:12:47;;;;;;;186.57;104.63;;;;;;;7.01;62.70;99250.14;1459747;89;22149;-85
2022/03/30 04:15:13;;;;;;;59.33;35.43;;;;;;;6.92;65.04;99257.64;1457191;89;22103;-85
2022/03/30 04:17:45;;;;;;;32.00;19.87;;;;;;;6.77;65.06;99264.75;1446343;89;21487;-84
2022/03/30 04:20:13;;;;;;;40.80;20.93;;;;;;;6.71;64.63;99266.67;1397166;93;22300;-84
2022/03/30 04:22:41;;;;;;;29.57;18.40;;;;;;;6.71;65.13;99279.83;1441450;89;22155;-85
2022/03/30 04:25:08;;;;;;;27.10;16.23;;;;;;;6.69;64.96;99271.25;1429603;90;22119;-83
2022/03/30 04:27:35;;;;;;;30.10;18.10;;;;;;;6.69;63.57;99269.94;1452308;89;22133;-84
2022/03/30 04:30:02;;;;;;;120.50;58.37;;;;;;;6.70;63.54;99275.55;1448512;89;23158;-84
2022/03/30 04:32:28;;;;;;;198.07;96.97;;;;;;;6.72;63.98;99280.16;1448534;89;22117;-85
2022/03/30 04:34:54;;;;;;;85.60;40.77;;;;;;;6.72;63.42;99282.78;1442899;89;22078;-86
2022/03/30 04:37:20;;;;;;;63.10;28.40;;;;;;;6.69;64.22;99276.52;1448042;89;22137;-86
2022/03/30 04:39:47;;;;;;;42.90;22.87;;;;;;;6.67;64.59;99275.01;1462222;89;23534;-85
2022/03/30 04:42:13;;;;;;;44.63;20.70;;;;;;;6.65;64.40;99269.09;1439817;89;22100;-85
2022/03/30 04:44:41;;;;;;;34.97;20.60;;;;;;;6.65;64.40;99269.09;1444421;89;22203;-85
2022/03/30 04:47:07;;;;;;;33.80;18.40;;;;;;;6.67;64.23;99267.94;1444894;90;23042;-85
2022/03/30 04:49:33;;;;;;;37.67;20.83;;;;;;;6.72;64.14;99272.27;1451244;89;22265;-85
2022/03/30 04:51:59;;;;;;;34.83;20.03;;;;;;;6.78;64.47;99271.66;1460639;89;22032;-83
2022/03/30 04:54:25;;;;;;;47.47;24.17;;;;;;;6.85;63.55;99269.27;1445879;89;21420;-83
2022/03/30 04:56:51;;;;;;;44.20;24.83;;;;;;;6.90;64.13;99267.48;1450692;88;23040;-82
2022/03/30 04:59:18;;;;;;;41.40;22.87;;;;;;;6.96;63.74;99268.17;1461977;89;22792;-82
2022/03/30 05:01:44;;;;;;;52.57;24.37;;;;;;;6.96;63.30;99267.72;1457476;88;24218;-83
2022/03/30 05:04:09;;;;;;;45.67;21.40;;;;;;;7.03;63.53;99271.87;1445452;89;22747;-82
2022/03/30 05:06:35;;;;;;;35.70;20.10;;;;;;;7.08;62.92;99270.92;1469681;89;21505;-81
2022/03/30 05:09:02;;;;;;;43.70;22.13;;;;;;;7.15;62.35;99273.76;1439195;89;21368;-82
2022/03/30 05:11:28;;;;;;;35.63;20.93;;;;;;;7.21;61.83;99270.51;1459894;88;23361;-81
2022/03/30 05:13:54;;;;;;;40.00;21.97;;;;;;;7.28;61.70;99274.19;1464013;88;22990;-82
2022/03/30 05:16:20;;;;;;;38.67;20.47;;;;;;;7.36;60.92;99260.23;1446727;90;22305;-83
2022/03/30 05:18:46;;;;;;;43.93;22.50;;;;;;;7.41;61.56;99258.79;1444690;89;22202;-83
2022/03/30 05:21:12;;;;;;;57.47;22.60;;;;;;;7.48;61.89;99244.53;1459269;88;21398;-84
2022/03/30 05:23:38;;;;;;;50.83;21.40;;;;;;;7.54;62.47;99243.91;1453387;88;21486;-83
2022/03/30 05:26:04;;;;;;;39.77;20.20;;;;;;;7.63;62.52;99248.22;1441960;88;21441;-79
2022/03/30 05:28:30;;;;;;;50.37;22.97;;;;;;;7.77;61.79;99245.95;1448381;88;22322;-79
2022/03/30 05:30:56;;;;;;;42.43;23.47;;;;;;;7.93;61.03;99243.89;1447919;89;21425;-81
2022/03/30 05:33:22;;;;;;;53.17;24.77;;;;;;;8.06;60.43;99236.37;1461328;89;21376;-81
2022/03/30 05:35:50;;;;;;;43.57;22.53;;;;;;;8.22;59.80;99233.75;1464225;88;22440;-81
2022/03/30 05:38:17;;;;;;;39.30;22.87;;;;;;;8.34;59.28;99229.00;1457247;89;21355;-81
2022/03/30 05:40:43;;;;;;;45.73;22.63;;;;;;;8.47;58.29;99224.11;1465184;89;21405;-81
2022/03/30 05:43:09;;;;;;;49.57;23.83;;;;;;;8.57;57.75;99227.43;1457331;88;22396;-81
2022/03/30 05:45:35;;;;;;;49.77;23.43;;;;;;;8.66;57.61;99216.86;1462447;88;22233;-83
2022/03/30 05:48:01;;;;;;;39.17;21.70;;;;;;;8.72;57.74;99219.69;1464535;88;22366;-82
2022/03/30 05:50:27;;;;;;;51.03;24.30;;;;;;;8.81;57.40;99222.64;1459910;88;21435;-82
2022/03/30 05:52:53;;;;;;;69.33;24.40;;;;;;;8.91;57.00;99222.46;1457809;89;23496;-83
2022/03/30 05:55:20;;;;;;;68.13;26.80;;;;;;;9.03;57.64;99213.70;1465663;89;22278;-83
2022/03/30 05:57:46;;;;;;;61.43;25.97;;;;;;;9.11;57.58;99212.88;1462819;88;21450;-83
2022/03/30 06:00:12;;;;;;;68.87;26.50;;;;;;;9.19;57.07;99208.91;1463181;88;21338;-81
2022/03/30 06:02:38;;;;;;;64.33;24.43;;;;;;;9.31;56.45;99222.08;1453188;89;22189;-82
2022/03/30 06:05:06;;;;;;;82.00;27.10;;;;;;;9.40;55.60;99226.33;1461838;88;21434;-82
2022/03/30 06:07:32;;;;;;;94.87;29.93;;;;;;;9.48;54.98;99233.42;1470405;89;21295;-82
2022/03/30 06:09:59;;;;;;;62.97;23.53;;;;;;;9.57;54.54;99236.86;1459001;88;21509;-82
2022/03/30 06:12:25;;;;;;;62.77;23.77;;;;;;;9.62;54.31;99234.54;1466752;88;21464;-81
2022/03/30 06:14:52;;;;;;;55.03;21.83;;;;;;;9.70;53.90;99237.97;1458512;88;22499;-81
2022/03/30 06:17:20;;;;;;;43.53;18.73;;;;;;;9.78;53.56;99238.45;1462511;89;21391;-80
2022/03/30 06:19:52;;;;;;;43.60;19.40;;;;;;;9.88;53.41;99232.95;1462379;89;21383;-81
2022/03/30 06:22:19;;;;;;;43.63;19.57;;;;;;;9.98;53.70;99230.08;1467868;89;22292;-81
2022/03/30 06:24:46;;;;;;;31.63;18.13;;;;;;;10.10;53.41;99231.36;1463192;89;21347;-81
2022/03/30 06:27:12;;;;;;;30.00;19.00;;;;;;;10.21;53.06;99237.55;1469439;88;21516;-81
2022/03/30 06:29:41;;;;;;;39.77;21.33;;;;;;;10.34;52.66;99237.03;1463001;88;21361;-81
2022/03/30 06:32:08;;;;;;;38.57;20.50;;;;;;;10.44;51.78;99236.79;1454970;89;22374;-82
2022/03/30 06:34:36;;;;;;;44.03;19.83;;;;;;;10.54;52.11;99238.72;1461347;89;21501;-82
2022/03/30 06:37:05;;;;;;;33.07;19.00;;;;;;;10.65;51.75;99241.45;1466075;88;21353;-88
2022/03/30 06:39:33;;;;;;;31.40;18.63;;;;;;;10.76;51.34;99247.16;1462392;88;21397;-80
2022/03/30 06:41:59;;;;;;;32.03;18.97;;;;;;;10.90;50.78;99247.36;1467887;88;21504;-80
2022/03/30 06:44:26;;;;;;;28.53;15.77;;;;;;;11.00;49.94;99242.66;1467483;89;21383;-80
2022/03/30 06:46:53;;;;;;;31.40;18.60;;;;;;;11.08;48.61;99250.53;1462809;88;21427;-80
2022/03/30 06:49:19;;;;;;;32.17;18.17;;;;;;;11.14;48.71;99251.12;1462390;88;21266;-80
2022/03/30 06:51:45;;;;;;;26.87;16.87;;;;;;;11.29;48.62;99256.45;1459575;88;22538;-80
2022/03/30 06:54:11;;;;;;;39.43;19.57;;;;;;;11.47;48.30;99266.18;1460438;88;21412;-80
2022/03/30 06:56:37;;;;;;;42.43;22.20;;;;;;;11.60;47.67;99262.91;1458171;89;21443;-80
2022/03/30 06:59:03;;;;;;;36.43;18.00;;;;;;;11.74;47.42;99255.97;1472298;88;21369;-81
2022/03/30 07:01:29;;;;;;;40.43;17.63;;;;;;;11.81;45.45;99258.20;1460935;88;22927;-80
2022/03/30 07:03:55;;;;;;;32.33;16.80;;;;;;;11.85;45.92;99255.52;1460276;88;22344;-80
2022/03/30 07:06:21;;;;;;;23.83;15.27;;;;;;;11.92;45.73;99263.06;1447394;89;21443;-81
2022/03/30 07:11:41;;;;;;;27.83;17.83;;;;;;;12.05;45.82;99279.63;1443640;89;21472;-81
2022/03/30 07:14:07;;;;;;;64.60;18.23;;;;;;;12.09;45.63;99275.63;1455386;88;21405;-80
2022/03/30 07:16:33;;;;;;;47.60;17.83;;;;;;;12.21;45.89;99275.96;1470583;88;21501;-80
2022/03/30 07:18:59;;;;;;;39.57;17.23;;;;;;;12.31;45.45;99279.13;1461222;88;22225;-81
2022/03/30 07:21:25;;;;;;;23.60;15.93;;;;;;;12.40;45.11;99285.98;1464895;89;21382;-80
2022/03/30 07:23:51;;;;;;;29.03;15.27;;;;;;;12.50;44.88;99287.00;1462529;89;21456;-81
2022/03/30 07:26:17;;;;;;;24.20;14.63;;;;;;;12.65;45.15;99290.41;1462333;88;21407;-81
2022/03/30 07:28:43;;;;;;;29.03;14.83;;;;;;;12.78;44.78;99278.31;1460758;88;21457;-79
2022/03/30 07:31:09;;;;;;;31.17;15.00;;;;;;;12.88;44.41;99285.44;1457764;88;22418;-82
2022/03/30 07:33:35;;;;;;;29.07;15.00;;;;;;;13.01;44.29;99278.92;1463553;89;21472;-81
2022/03/30 07:36:01;;;;;;;38.37;16.37;;;;;;;13.13;43.94;99269.11;1440975;89;22470;-82
2022/03/30 07:38:27;;;;;;;37.00;17.23;;;;;;;13.21;43.36;99269.79;1471140;88;21398;-81
2022/03/30 07:40:54;;;;;;;32.60;16.03;;;;;;;13.26;43.16;99273.20;1462905;89;21367;-80
2022/03/30 07:43:21;;;;;;;36.17;15.83;;;;;;;13.41;43.76;99272.62;1458386;88;21375;-81
2022/03/30 07:45:47;;;;;;;29.23;15.93;;;;;;;13.52;43.20;99281.39;1460462;88;21420;-81
2022/03/30 07:48:13;;;;;;;28.43;14.77;;;;;;;13.64;43.11;99279.52;1468467;89;22310;-81
2022/03/30 07:50:40;;;;;;;31.80;16.10;;;;;;;13.69;42.43;99287.71;1467993;88;21481;-81
2022/03/30 07:53:08;;;;;;;38.80;17.70;;;;;;;13.69;42.31;99291.70;1462046;89;21508;-81
2022/03/30 07:55:35;;;;;;;25.50;14.93;;;;;;;13.80;42.74;99293.00;1459825;88;22241;-80
2022/03/30 07:58:02;;;;;;;33.43;15.20;;;;;;;13.89;41.08;99291.30;1454023;88;21420;-81
2022/03/30 08:00:29;;;;;;;24.03;14.33;;;;;;;13.95;41.74;99289.70;1444922;89;21354;-81
2022/03/30 08:02:55;;;;;;;29.07;15.83;;;;;;;14.01;40.77;99290.23;1468673;89;21434;-81
2022/03/30 08:05:21;;;;;;;29.83;15.87;;;;;;;14.06;41.74;99284.33;1457499;88;21448;-81
2022/03/30 08:07:50;;;;;;;30.37;15.47;;;;;;;14.24;41.41;99292.58;1454119;89;21250;-81
2022/03/30 08:10:18;;;;;;;37.40;13.73;;;;;;;14.32;40.76;99293.74;1467370;89;22374;-81
2022/03/30 08:12:44;;;;;;;27.63;13.30;;;;;;;14.36;39.72;99294.19;1458879;88;21326;-82
2022/03/30 08:15:13;;;;;;;23.37;13.67;;;;;;;14.39;40.38;99293.78;1471008;88;21420;-81
2022/03/30 08:17:42;;;;;;;27.20;14.37;;;;;;;14.41;40.27;99291.23;1469691;88;21818;-81
2022/03/30 08:20:12;;;;;;;23.60;15.07;;;;;;;14.55;39.74;99293.44;1452217;89;21369;-81
2022/03/30 08:22:37;;;;;;;26.73;14.37;;;;;;;14.65;39.72;99296.55;1460947;88;21538;-82
2022/03/30 08:25:07;;;;;;;24.40;13.97;;;;;;;14.74;39.48;99291.85;1464593;88;21383;-81
2022/03/30 08:27:35;;;;;;;39.43;14.83;;;;;;;14.98;38.90;99298.95;1469273;88;21515;-82
2022/03/30 08:30:02;;;;;;;18.53;11.33;;;;;;;14.98;38.90;99298.95;1470329;89;22134;-82
2022/03/30 08:32:28;;;;;;;33.13;13.80;;;;;;;15.02;38.73;99299.68;1457245;88;21423;-81
2022/03/30 08:34:56;;;;;;;20.93;12.17;;;;;;;15.05;38.79;99302.45;1465331;88;21481;-81
2022/03/30 08:37:25;;;;;;;27.52;13.62;;;;;;;15.16;38.95;99308.48;1460901;88;21376;-81
2022/03/30 08:39:55;;;;;;;23.57;11.00;;;;;;;15.26;38.18;99304.91;1469965;88;21391;-81
2022/03/30 08:42:22;;;;;;;26.57;12.00;;;;;;;15.34;37.80;99304.70;1465098;88;21510;-79
2022/03/30 08:44:51;;;;;;;25.07;11.90;;;;;;;15.45;38.23;99312.60;1459479;89;21450;-88
2022/03/30 08:47:17;;;;;;;29.33;12.23;;;;;;;15.65;37.86;99320.58;1462634;88;21420;-87
2022/03/30 08:49:47;;;;;;;16.50;10.50;;;;;;;15.69;37.94;99318.34;1466086;88;21346;-88
2022/03/30 08:52:11;;;;;;;20.57;12.63;;;;;;;15.78;38.57;99316.57;1461745;88;21471;-83
2022/03/30 08:54:50;;;;;;;32.80;13.77;;;;;;;15.89;36.62;99312.97;1463221;89;21375;-88
2022/03/30 08:57:15;;;;;;;29.77;14.10;;;;;;;15.94;37.03;99313.98;1470692;88;21397;-87
2022/03/30 09:00:09;;;;;;;30.70;15.33;;;;;;;16.05;37.46;99308.48;1463907;88;21390;-88
2022/03/30 09:02:41;;;;;;;27.20;13.20;;;;;;;16.16;36.64;99303.02;1476665;87;21251;-93
2022/03/30 09:05:21;;;;;;;25.40;14.10;;;;;;;16.15;37.21;99310.22;1459650;88;21303;-93
2022/03/30 09:07:56;;;;;;;23.05;12.75;;;;;;;16.17;36.86;99301.98;1476323;88;21404;-92
2022/03/30 09:10:26;;;;;;;28.63;13.40;;;;;;;16.15;36.36;99308.06;1463648;89;21427;-90
2022/03/30 09:12:52;;;;;;;23.32;13.40;;;;;;;16.18;36.81;99299.11;1461664;88;21325;-89
2022/03/30 09:15:21;;;;;;;33.23;13.10;;;;;;;16.22;36.53;99292.30;1460922;89;21444;-92
2022/03/30 09:17:47;;;;;;;21.60;13.10;;;;;;;16.38;36.86;99290.20;1452011;88;21339;-88
2022/03/30 09:20:19;;;;;;;30.80;12.33;;;;;;;16.64;36.58;99279.37;1465873;88;21398;-88
2022/03/30 09:22:50;;;;;;;24.73;12.53;;;;;;;16.74;37.24;99269.53;1462942;89;22241;-87
2022/03/30 09:25:17;;;;;;;18.70;11.22;;;;;;;16.79;36.12;99272.94;1466185;88;21434;-88
2022/03/30 09:27:46;;;;;;;20.60;11.20;;;;;;;16.86;35.84;99279.04;1465830;89;21375;-88
2022/03/30 09:30:15;;;;;;;21.97;10.63;;;;;;;16.96;35.58;99288.75;1466175;88;21465;-87
2022/03/30 09:32:45;;;;;;;18.80;11.00;;;;;;;16.92;35.53;99286.22;1461001;89;21538;-88
2022/03/30 09:35:32;;;;;;;20.30;11.03;;;;;;;16.91;35.42;99276.02;1458413;88;21502;-88
2022/03/30 09:38:09;;;;;;;40.23;11.33;;;;;;;16.89;35.21;99279.45;1458133;89;21382;-88
2022/03/30 09:40:43;;;;;;;20.73;11.33;;;;;;;17.00;35.73;99267.22;1464206;89;21385;-88
2022/03/30 09:43:25;;;;;;;20.53;9.93;;;;;;;17.04;35.29;99265.77;1454609;88;21332;-89
2022/03/30 09:46:08;;;;;;;17.50;9.80;;;;;;;17.20;35.73;99263.57;1443977;89;21384;-88
2022/03/30 09:48:53;;;;;;;23.53;10.93;;;;;;;17.13;34.96;99260.44;1456981;88;21457;-89
2022/03/30 09:51:24;;;;;;;19.60;10.40;;;;;;;17.34;35.54;99259.74;1449838;88;21361;-90
2022/03/30 09:53:51;;;;;;;20.10;8.70;;;;;;;17.48;35.08;99254.56;1454134;88;21795;-88
2022/03/30 09:56:20;;;;;;;23.20;8.10;;;;;;;17.67;34.85;99252.73;1462723;89;21311;-90
2022/03/30 09:58:47;;;;;;;23.93;10.97;;;;;;;17.67;34.54;99255.94;1459410;88;21450;-85
2022/03/30 10:01:22;;;;;;;18.03;9.90;;;;;;;17.59;34.44;99255.17;1463209;89;21413;-86
2022/03/30 10:06:44;;;;;;;15.80;8.80;;;;;;;17.57;34.97;99238.52;1461429;89;23279;-85
2022/03/30 10:09:11;;;;;;;21.50;8.70;;;;;;;17.75;34.88;99239.56;1457956;89;21339;-86
2022/03/30 10:11:37;;;;;;;15.97;9.27;;;;;;;17.85;34.98;99243.92;1460027;88;21413;-86
2022/03/30 10:14:08;;;;;;;22.00;8.50;;;;;;;17.94;34.35;99241.75;1444639;89;21413;-86
2022/03/30 10:16:34;;;;;;;15.13;8.57;;;;;;;17.92;34.67;99241.97;1456554;89;21338;-86
2022/03/30 10:19:00;;;;;;;19.27;9.37;;;;;;;17.80;34.47;99224.50;1464094;89;21465;-86
2022/03/30 10:21:56;;;;;;;20.27;7.97;;;;;;;17.92;34.80;99227.25;1440957;89;21302;-86
2022/03/30 10:24:58;;;;;;;16.43;7.43;;;;;;;18.01;34.82;99224.58;1462022;89;21346;-85
2022/03/30 10:27:32;;;;;;;20.60;8.57;;;;;;;18.14;34.76;99221.43;1459571;88;22313;-85
2022/03/30 10:30:03;;;;;;;14.90;8.77;;;;;;;18.20;34.40;99223.20;1459932;88;21486;-82
2022/03/30 10:32:37;;;;;;;18.80;8.73;;;;;;;18.19;34.37;99221.58;1459533;89;21517;-83
2022/03/30 10:35:11;;;;;;;20.13;9.03;;;;;;;18.20;34.16;99215.98;1457634;89;22212;-83
2022/03/30 10:37:42;;;;;;;18.37;8.67;;;;;;;18.20;33.80;99209.81;1472413;89;21265;-82
2022/03/30 10:40:19;;;;;;;33.00;10.30;;;;;;;18.40;34.89;99201.50;1457147;89;21397;-81
2022/03/30 10:42:54;;;;;;;23.83;9.83;;;;;;;18.57;33.34;99203.00;1475878;88;21420;-83
2022/03/30 10:45:30;;;;;;;56.63;10.33;;;;;;;18.65;34.08;99205.36;1459906;89;21463;-82
2022/03/30 10:48:22;;;;;;;18.43;8.67;;;;;;;18.70;33.28;99199.61;1464995;88;21398;-83
2022/03/30 10:51:09;;;;;;;21.50;9.40;;;;;;;18.73;33.49;99202.35;1464115;89;21812;-82
2022/03/30 10:53:39;;;;;;;14.73;8.50;;;;;;;18.95;33.75;99195.92;1458716;89;21376;-83
2022/03/30 10:56:22;;;;;;;19.23;8.70;;;;;;;18.94;32.89;99203.16;1453919;88;21428;-82
2022/03/30 10:58:56;;;;;;;14.43;9.07;;;;;;;18.93;33.15;99196.17;1461900;89;22544;-82
2022/03/30 11:01:30;;;;;;;22.90;9.80;;;;;;;19.04;33.06;99187.81;1454137;89;21361;-82
2022/03/30 11:04:00;;;;;;;21.57;8.90;;;;;;;19.14;32.86;99185.91;1461583;89;21419;-82
2022/03/30 11:06:28;;;;;;;21.80;8.25;;;;;;;19.07;32.66;99173.13;1462741;89;23571;-83
2022/03/30 11:09:01;;;;;;;23.07;9.20;;;;;;;19.09;32.80;99177.75;1454557;88;21406;-83
2022/03/30 11:11:40;;;;;;;16.73;9.40;;;;;;;19.15;32.79;99188.88;1460357;89;21331;-82
2022/03/30 11:14:32;;;;;;;17.43;8.53;;;;;;;19.25;32.86;99178.39;1469019;88;21457;-83
2022/03/30 11:17:08;;;;;;;24.20;10.13;;;;;;;19.34;32.61;99176.16;1460764;89;21367;-82
2022/03/30 11:19:55;;;;;;;13.67;7.97;;;;;;;19.27;32.52;99169.56;1463919;88;21450;-82
2022/03/30 11:22:36;;;;;;;20.03;8.40;;;;;;;19.15;32.83;99166.08;1465645;89;21353;-83
2022/03/30 11:25:18;;;;;;;33.50;9.60;;;;;;;19.04;32.88;99162.34;1468747;88;21487;-84
2022/03/30 11:27:44;;;;;;;21.70;9.93;;;;;;;19.12;32.95;99162.00;1463779;89;21544;-83
2022/03/30 11:30:18;;;;;;;25.90;9.80;;;;;;;19.09;32.87;99160.31;1443938;89;22462;-86
2022/03/30 11:32:52;;;;;;;22.07;9.63;;;;;;;19.04;32.72;99154.30;1457341;89;21398;-85
2022/03/30 11:35:21;;;;;;;21.87;9.80;;;;;;;19.08;32.80;99149.31;1461246;89;21455;-86
2022/03/30 11:37:56;;;;;;;21.13;8.77;;;;;;;19.25;33.09;99152.91;1465067;89;21654;-84